createdAt,value
2017-10-11T00:01:00.472Z,21.10
2017-10-11T00:03:30.065Z,21.10
2017-10-11T00:05:58.831Z,21.00
2017-10-11T00:08:27.522Z,21.00
2017-10-11T00:10:56.428Z,21.00
2017-10-11T00:13:25.057Z,21.00
2017-10-11T00:15:53.691Z,21.00
2017-10-11T00:18:22.486Z,21.00
2017-10-11T00:20:51.143Z,21.00
2017-10-11T00:23:19.752Z,21.10
2017-10-11T00:25:51.727Z,21.00
2017-10-11T00:28:20.419Z,21.00
2017-10-11T00:30:48.988Z,21.00
2017-10-11T00:33:17.627Z,21.00
2017-10-11T00:35:47.066Z,20.90
2017-10-11T00:38:15.720Z,20.90
2017-10-11T00:40:45.186Z,20.90
2017-10-11T00:43:13.818Z,20.80
2017-10-11T00:45:42.651Z,20.80
2017-10-11T00:48:11.510Z,20.80
2017-10-11T00:50:40.157Z,20.80
2017-10-11T00:53:09.599Z,20.80
2017-10-11T00:55:38.346Z,20.70
2017-10-11T00:58:07.149Z,20.80
2017-10-11T01:00:36.634Z,20.70
2017-10-11T01:03:06.536Z,20.70
2017-10-11T01:05:36.150Z,20.70
2017-10-11T01:08:04.833Z,20.70
2017-10-11T01:10:33.942Z,20.70
2017-10-11T01:13:03.332Z,20.70
2017-10-11T01:15:33.118Z,20.70
2017-10-11T01:18:03.008Z,20.70
2017-10-11T01:20:32.032Z,20.60
2017-10-11T01:23:01.730Z,20.70
2017-10-11T01:25:30.514Z,20.60
2017-10-11T01:28:00.168Z,20.60
2017-10-11T01:30:29.879Z,20.60
2017-10-11T01:32:58.736Z,20.60
2017-10-11T01:35:27.471Z,20.60
2017-10-11T01:37:56.348Z,20.60
2017-10-11T01:40:25.239Z,20.50
2017-10-11T01:42:54.054Z,20.50
2017-10-11T01:45:22.882Z,20.50
2017-10-11T01:47:51.662Z,20.60
2017-10-11T01:50:21.576Z,20.60
2017-10-11T01:52:50.558Z,20.50
2017-10-11T01:55:19.324Z,20.50
2017-10-11T01:57:48.024Z,20.50
2017-10-11T02:00:17.512Z,20.50
2017-10-11T02:02:46.198Z,20.50
2017-10-11T02:05:18.049Z,20.50
2017-10-11T02:07:46.927Z,20.40
2017-10-11T02:10:15.582Z,20.40
2017-10-11T02:12:44.308Z,20.40
2017-10-11T02:15:15.147Z,20.40
2017-10-11T02:17:44.659Z,20.40
2017-10-11T02:20:13.266Z,20.30
2017-10-11T02:22:41.948Z,20.30
2017-10-11T02:25:10.576Z,20.30
2017-10-11T02:27:40.073Z,20.30
2017-10-11T02:30:08.800Z,20.30
2017-10-11T02:32:37.416Z,20.30
2017-10-11T02:35:06.808Z,20.30
2017-10-11T02:37:35.446Z,20.20
2017-10-11T02:40:04.195Z,20.20
2017-10-11T02:42:32.926Z,20.20
2017-10-11T02:45:02.796Z,20.20
2017-10-11T02:47:31.526Z,20.20
2017-10-11T02:50:00.192Z,20.20
2017-10-11T02:52:29.002Z,20.20
2017-10-11T02:54:57.607Z,20.20
2017-10-11T02:57:26.299Z,20.20
2017-10-11T02:59:54.946Z,20.20
2017-10-11T03:02:23.653Z,20.20
2017-10-11T03:04:52.287Z,20.20
2017-10-11T03:07:20.981Z,20.20
2017-10-11T03:09:50.438Z,20.20
2017-10-11T03:12:19.017Z,20.20
2017-10-11T03:14:47.677Z,20.20
2017-10-11T03:17:16.306Z,20.20
2017-10-11T03:19:44.887Z,20.20
2017-10-11T03:22:14.295Z,20.20
2017-10-11T03:24:43.938Z,20.20
2017-10-11T03:27:12.721Z,20.20
2017-10-11T03:29:43.157Z,20.20
2017-10-11T03:32:11.769Z,20.10
2017-10-11T03:34:42.150Z,20.10
2017-10-11T03:37:11.630Z,20.10
2017-10-11T03:39:40.285Z,20.10
2017-10-11T03:42:08.895Z,20.10
2017-10-11T03:44:38.351Z,20.10
2017-10-11T03:47:07.812Z,20.10
2017-10-11T03:49:36.755Z,20.10
2017-10-11T03:52:05.766Z,20.10
2017-10-11T03:54:34.730Z,20.20
2017-10-11T03:57:05.251Z,20.20
2017-10-11T03:59:33.893Z,20.20
2017-10-11T04:02:02.521Z,20.10
2017-10-11T04:04:31.982Z,20.20
2017-10-11T04:07:00.662Z,20.20
2017-10-11T04:09:29.401Z,20.20
2017-10-11T04:11:58.992Z,20.20
2017-10-11T04:14:28.374Z,20.10
2017-10-11T04:16:56.978Z,20.10
2017-10-11T04:19:25.707Z,20.10
2017-10-11T04:21:54.329Z,20.10
2017-10-11T04:24:23.053Z,20.10
2017-10-11T04:26:52.620Z,20.00
2017-10-11T04:32:24.583Z,20.00
2017-10-11T04:34:53.276Z,20.00
2017-10-11T04:37:21.906Z,19.90
2017-10-11T04:39:51.707Z,20.00
2017-10-11T04:42:20.406Z,20.00
2017-10-11T04:44:49.352Z,20.00
2017-10-11T04:47:18.044Z,20.00
2017-10-11T04:49:46.730Z,20.00
2017-10-11T04:52:15.486Z,19.90
2017-10-11T04:54:44.169Z,19.90
2017-10-11T04:57:12.882Z,19.90
2017-10-11T04:59:41.586Z,19.90
2017-10-11T05:02:10.617Z,19.90
2017-10-11T05:04:40.065Z,20.00
2017-10-11T05:07:09.073Z,19.90
2017-10-11T05:09:37.772Z,20.00
2017-10-11T05:12:06.380Z,20.00
2017-10-11T05:17:10.350Z,19.90
2017-10-11T05:19:39.173Z,19.90
2017-10-11T05:22:08.557Z,19.90
2017-10-11T05:24:38.380Z,19.90
2017-10-11T05:27:07.044Z,20.00
2017-10-11T05:29:35.694Z,20.00
2017-10-11T05:32:04.433Z,20.00
2017-10-11T05:34:33.259Z,20.00
2017-10-11T05:37:02.031Z,20.10
2017-10-11T05:39:30.746Z,20.10
2017-10-11T05:41:59.426Z,20.00
2017-10-11T05:44:28.077Z,20.00
2017-10-11T05:46:57.524Z,20.10
2017-10-11T05:49:26.348Z,20.10
2017-10-11T05:51:55.175Z,20.20
2017-10-11T05:54:23.922Z,20.20
2017-10-11T05:56:53.971Z,20.20
2017-10-11T05:59:22.719Z,20.10
2017-10-11T06:01:51.366Z,20.10
2017-10-11T06:04:20.112Z,20.10
2017-10-11T06:06:48.891Z,20.10
2017-10-11T06:09:17.519Z,20.10
2017-10-11T06:11:46.168Z,20.10
2017-10-11T06:14:15.791Z,20.10
2017-10-11T06:16:44.916Z,20.10
2017-10-11T06:19:13.974Z,20.10
2017-10-11T06:21:43.816Z,20.10
2017-10-11T06:24:13.631Z,20.20
2017-10-11T06:26:42.963Z,20.20
2017-10-11T06:29:11.776Z,20.20
2017-10-11T06:31:41.352Z,20.20
2017-10-11T06:34:10.102Z,20.20
2017-10-11T06:36:38.941Z,20.30
2017-10-11T06:39:07.857Z,20.40
2017-10-11T06:41:36.848Z,20.40
2017-10-11T06:44:06.830Z,20.40
2017-10-11T06:46:35.527Z,20.40
2017-10-11T06:49:04.515Z,20.50
2017-10-11T06:51:33.266Z,20.50
2017-10-11T06:54:02.026Z,20.50
2017-10-11T06:56:31.598Z,20.60
2017-10-11T06:59:00.421Z,20.60
2017-10-11T07:01:29.354Z,20.60
2017-10-11T07:03:58.033Z,20.70
2017-10-11T07:06:27.183Z,20.80
2017-10-11T07:08:56.899Z,21.00
2017-10-11T07:11:25.700Z,21.00
2017-10-11T07:13:54.361Z,21.40
2017-10-11T07:16:23.046Z,21.80
2017-10-11T07:18:51.719Z,22.10
2017-10-11T07:21:20.479Z,22.30
2017-10-11T07:23:49.202Z,22.40
2017-10-11T07:26:18.407Z,22.90
2017-10-11T07:28:47.457Z,23.40
2017-10-11T07:31:16.326Z,23.50
2017-10-11T07:33:45.052Z,23.90
2017-10-11T07:36:14.462Z,22.50
2017-10-11T07:38:43.261Z,22.50
2017-10-11T07:41:12.011Z,22.10
2017-10-11T07:43:40.944Z,22.00
2017-10-11T07:46:09.646Z,21.80
2017-10-11T07:48:38.345Z,21.70
2017-10-11T07:51:07.011Z,21.60
2017-10-11T07:53:35.969Z,21.60
2017-10-11T07:56:04.763Z,21.60
2017-10-11T07:58:33.600Z,21.60
2017-10-11T08:01:03.108Z,21.80
2017-10-11T08:03:32.404Z,21.90
2017-10-11T08:06:02.245Z,22.00
2017-10-11T08:08:31.206Z,22.00
2017-10-11T08:10:59.887Z,22.00
2017-10-11T08:13:29.364Z,22.10
2017-10-11T08:15:58.270Z,22.20
2017-10-11T08:18:27.643Z,22.30
2017-10-11T08:20:56.390Z,22.30
2017-10-11T08:23:25.974Z,22.10
2017-10-11T08:25:56.887Z,22.10
2017-10-11T08:28:25.667Z,22.10
2017-10-11T08:30:54.331Z,22.10
2017-10-11T08:33:24.367Z,22.30
2017-10-11T08:35:53.659Z,22.30
2017-10-11T08:38:22.739Z,22.40
2017-10-11T08:40:51.563Z,22.40
2017-10-11T08:43:20.449Z,22.50
2017-10-11T08:45:50.157Z,22.50
2017-10-11T08:48:19.031Z,22.50
2017-10-11T08:50:47.909Z,22.50
2017-10-11T08:53:17.522Z,22.60
2017-10-11T08:55:46.336Z,22.60
2017-10-11T08:58:15.614Z,22.80
2017-10-11T09:00:44.598Z,22.80
2017-10-11T09:03:14.167Z,22.90
2017-10-11T09:05:43.968Z,23.00
2017-10-11T09:08:12.642Z,23.00
2017-10-11T09:10:42.068Z,23.00
2017-10-11T09:13:10.982Z,23.00
2017-10-11T09:15:39.749Z,23.20
2017-10-11T09:18:08.500Z,23.20
2017-10-11T09:20:38.482Z,23.30
2017-10-11T09:23:08.336Z,23.30
2017-10-11T09:25:39.986Z,23.40
2017-10-11T09:28:08.768Z,23.30
2017-10-11T09:30:38.360Z,23.40
2017-10-11T09:33:08.690Z,23.40
2017-10-11T09:35:37.329Z,23.30
2017-10-11T09:38:07.264Z,23.40
2017-10-11T09:40:36.067Z,23.40
2017-10-11T09:43:05.775Z,23.50
2017-10-11T09:45:35.791Z,23.20
2017-10-11T09:48:04.602Z,23.20
2017-10-11T09:50:33.720Z,23.30
2017-10-11T09:53:04.489Z,23.20
2017-10-11T09:55:33.302Z,23.20
2017-10-11T09:58:03.175Z,23.30
2017-10-11T10:00:32.430Z,23.30
2017-10-11T10:03:01.110Z,23.40
2017-10-11T10:05:30.677Z,23.80
2017-10-11T10:07:59.967Z,23.80
2017-10-11T10:10:28.812Z,23.80
2017-10-11T10:12:57.907Z,24.10
2017-10-11T10:15:27.147Z,23.70
2017-10-11T10:17:56.282Z,23.40
2017-10-11T10:20:25.415Z,23.30
2017-10-11T10:22:54.487Z,23.30
2017-10-11T10:25:23.853Z,23.10
2017-10-11T10:27:52.741Z,23.40
2017-10-11T10:30:21.512Z,23.50
2017-10-11T10:32:50.547Z,23.60
2017-10-11T10:35:19.370Z,23.60
2017-10-11T10:37:49.007Z,23.70
2017-10-11T10:40:17.728Z,23.70
2017-10-11T10:42:46.492Z,23.80
2017-10-11T10:45:16.522Z,23.90
2017-10-11T10:47:45.306Z,23.90
2017-10-11T10:50:14.254Z,24.00
2017-10-11T10:52:42.952Z,24.30
2017-10-11T10:55:11.784Z,24.40
2017-10-11T10:57:40.602Z,24.50
2017-10-11T11:00:09.411Z,24.50
2017-10-11T11:02:38.359Z,24.50
2017-10-11T11:05:07.302Z,24.10
2017-10-11T11:07:36.996Z,24.30
2017-10-11T11:10:06.277Z,24.30
2017-10-11T11:12:35.212Z,24.30
2017-10-11T11:15:04.594Z,24.30
2017-10-11T11:17:34.369Z,24.50
2017-10-11T11:20:04.373Z,24.70
2017-10-11T11:22:33.099Z,25.00
2017-10-11T11:25:01.939Z,25.00
2017-10-11T11:27:31.688Z,25.20
2017-10-11T11:30:01.100Z,25.30
2017-10-11T11:32:32.198Z,25.00
2017-10-11T11:35:01.415Z,24.80
2017-10-11T11:37:32.291Z,24.80
2017-10-11T11:40:02.143Z,24.50
2017-10-11T11:42:31.460Z,24.70
2017-10-11T11:45:01.457Z,24.90
2017-10-11T11:47:31.476Z,24.70
2017-10-11T11:50:01.130Z,24.50
2017-10-11T11:52:31.235Z,24.70
2017-10-11T11:55:01.855Z,24.70
2017-10-11T11:57:38.244Z,24.50
2017-10-11T12:00:08.226Z,24.40
2017-10-11T12:02:39.392Z,24.60
2017-10-11T12:05:12.336Z,24.70
2017-10-11T12:07:41.760Z,24.60
2017-10-11T12:10:11.476Z,24.70
2017-10-11T12:12:40.364Z,24.70
2017-10-11T12:15:10.204Z,24.80
2017-10-11T12:17:39.154Z,24.80
2017-10-11T12:20:10.664Z,24.70
2017-10-11T12:22:39.424Z,24.80
2017-10-11T12:25:08.958Z,25.20
2017-10-11T12:27:39.491Z,25.20
2017-10-11T12:30:09.481Z,24.90
2017-10-11T12:32:38.321Z,25.00
2017-10-11T12:35:15.456Z,24.80
2017-10-11T12:37:53.178Z,25.00
2017-10-11T12:40:22.400Z,24.80
2017-10-11T12:42:51.116Z,24.80
2017-10-11T12:45:20.130Z,24.80
2017-10-11T12:47:49.125Z,25.00
2017-10-11T12:50:17.876Z,25.90
2017-10-11T12:52:46.518Z,26.90
2017-10-11T12:55:16.029Z,27.70
2017-10-11T12:57:44.927Z,27.90
2017-10-11T13:00:13.848Z,28.90
2017-10-11T13:02:46.244Z,29.80
2017-10-11T13:05:15.558Z,29.30
2017-10-11T13:07:44.376Z,29.60
2017-10-11T13:10:13.391Z,30.90
2017-10-11T13:12:42.968Z,31.30
2017-10-11T13:15:12.018Z,31.30
2017-10-11T13:17:41.675Z,30.90
2017-10-11T13:20:10.736Z,30.50
2017-10-11T13:22:40.267Z,29.20
2017-10-11T13:25:09.320Z,29.20
2017-10-11T13:27:38.854Z,28.80
2017-10-11T13:30:07.556Z,29.40
2017-10-11T13:32:36.600Z,30.40
2017-10-11T13:35:06.642Z,30.90
2017-10-11T13:37:35.569Z,30.90
2017-10-11T13:40:04.309Z,31.50
2017-10-11T13:42:33.715Z,29.90
2017-10-11T13:45:02.492Z,29.80
2017-10-11T13:47:31.371Z,30.00
2017-10-11T13:50:00.407Z,29.40
2017-10-11T13:52:29.166Z,28.50
2017-10-11T13:54:57.926Z,28.90
2017-10-11T13:57:27.612Z,29.00
2017-10-11T13:59:56.303Z,29.10
2017-10-11T14:02:24.933Z,28.60
2017-10-11T14:04:54.648Z,29.40
2017-10-11T14:07:23.212Z,29.20
2017-10-11T14:09:51.949Z,28.30
2017-10-11T14:12:20.599Z,27.60
2017-10-11T14:14:49.456Z,27.40
2017-10-11T14:17:18.284Z,27.60
2017-10-11T14:19:47.326Z,27.10
2017-10-11T14:22:16.061Z,26.50
2017-10-11T14:24:44.702Z,26.50
2017-10-11T14:27:13.353Z,26.30
2017-10-11T14:29:41.930Z,25.90
2017-10-11T14:32:12.246Z,25.80
2017-10-11T14:34:43.027Z,25.60
2017-10-11T14:37:14.803Z,25.80
2017-10-11T14:39:43.502Z,25.70
2017-10-11T14:42:12.146Z,25.70
2017-10-11T14:44:40.992Z,25.70
2017-10-11T14:47:10.896Z,25.70
2017-10-11T14:49:39.958Z,25.60
2017-10-11T14:52:09.079Z,25.20
2017-10-11T14:54:37.863Z,25.00
2017-10-11T14:57:06.543Z,25.00
2017-10-11T14:59:35.754Z,24.90
2017-10-11T15:02:04.649Z,24.90
2017-10-11T15:04:33.447Z,24.80
2017-10-11T15:07:02.947Z,24.50
2017-10-11T15:09:31.642Z,24.60
2017-10-11T15:12:00.488Z,24.40
2017-10-11T15:14:29.405Z,24.70
2017-10-11T15:16:58.139Z,24.60
2017-10-11T15:19:27.577Z,24.40
2017-10-11T15:21:57.032Z,24.40
2017-10-11T15:24:25.674Z,24.40
2017-10-11T15:26:55.295Z,24.30
2017-10-11T15:29:24.034Z,24.30
2017-10-11T15:31:52.720Z,24.40
2017-10-11T15:34:23.113Z,24.40
2017-10-11T15:36:52.891Z,24.50
2017-10-11T15:39:21.552Z,24.50
2017-10-11T15:41:50.992Z,24.10
2017-10-11T15:44:19.654Z,24.10
2017-10-11T15:46:48.426Z,24.20
2017-10-11T15:49:17.132Z,24.20
2017-10-11T15:51:45.821Z,24.10
2017-10-11T15:54:14.514Z,24.20
2017-10-11T15:56:44.159Z,24.10
2017-10-11T15:59:12.999Z,24.10
2017-10-11T16:01:42.600Z,23.90
2017-10-11T16:04:11.366Z,23.90
2017-10-11T16:06:40.375Z,23.90
2017-10-11T16:09:10.269Z,23.70
2017-10-11T16:11:39.379Z,23.70
2017-10-11T16:14:08.290Z,23.70
2017-10-11T16:16:36.899Z,23.70
2017-10-11T16:19:05.576Z,23.60
2017-10-11T16:21:35.445Z,23.50
2017-10-11T16:24:05.155Z,23.50
2017-10-11T16:26:35.022Z,23.30
2017-10-11T16:29:04.726Z,23.30
2017-10-11T16:31:34.152Z,23.30
2017-10-11T16:34:03.184Z,23.30
2017-10-11T16:36:32.131Z,23.30
2017-10-11T16:39:00.742Z,23.30
2017-10-11T16:41:29.667Z,23.40
2017-10-11T16:43:58.428Z,23.50
2017-10-11T16:46:27.957Z,23.30
2017-10-11T16:48:56.776Z,23.30
2017-10-11T16:51:25.610Z,23.30
2017-10-11T16:53:54.810Z,23.20
2017-10-11T16:56:23.826Z,23.20
2017-10-11T16:58:53.609Z,23.10
2017-10-11T17:01:23.333Z,23.10
2017-10-11T17:03:51.927Z,23.10
2017-10-11T17:06:20.634Z,23.20
2017-10-11T17:08:49.379Z,23.20
2017-10-11T17:11:18.075Z,23.00
2017-10-11T17:13:46.801Z,23.10
2017-10-11T17:16:18.340Z,23.00
2017-10-11T17:18:47.195Z,23.00
2017-10-11T17:21:15.910Z,22.90
2017-10-11T17:23:44.797Z,22.90
2017-10-11T17:26:13.437Z,22.90
2017-10-11T17:28:43.092Z,22.90
2017-10-11T17:31:12.004Z,22.90
2017-10-11T17:33:40.717Z,22.80
2017-10-11T17:36:09.316Z,22.80
2017-10-11T17:38:38.747Z,22.70
2017-10-11T17:41:07.626Z,22.80
2017-10-11T17:43:37.266Z,22.80
2017-10-11T17:46:06.240Z,22.80
2017-10-11T17:48:35.071Z,22.80
2017-10-11T17:51:04.671Z,22.70
2017-10-11T17:53:33.375Z,22.70
2017-10-11T17:56:03.558Z,22.70
2017-10-11T17:58:32.235Z,22.70
2017-10-11T18:01:02.003Z,22.70
2017-10-11T18:03:31.675Z,22.60
2017-10-11T18:06:01.521Z,22.70
2017-10-11T18:08:30.411Z,22.60
2017-10-11T18:11:00.448Z,22.60
2017-10-11T18:13:29.137Z,22.60
2017-10-11T18:15:57.755Z,22.60
2017-10-11T18:18:26.705Z,22.60
2017-10-11T18:20:55.780Z,22.60
2017-10-11T18:23:24.541Z,22.50
2017-10-11T18:25:53.315Z,22.50
2017-10-11T18:28:21.977Z,22.60
2017-10-11T18:30:50.753Z,22.60
2017-10-11T18:33:19.467Z,22.60
2017-10-11T18:35:48.106Z,22.70
2017-10-11T18:38:16.867Z,22.70
2017-10-11T18:40:47.271Z,22.70
2017-10-11T18:43:16.108Z,22.70
2017-10-11T18:45:44.945Z,22.70
2017-10-11T18:48:14.199Z,22.70
2017-10-11T18:50:44.003Z,22.60
2017-10-11T18:53:12.701Z,22.60
2017-10-11T18:55:41.545Z,22.50
2017-10-11T18:58:10.405Z,22.50
2017-10-11T19:00:39.697Z,22.50
2017-10-11T19:03:08.797Z,22.50
2017-10-11T19:05:37.588Z,22.50
2017-10-11T19:08:06.426Z,22.40
2017-10-11T19:10:35.706Z,22.40
2017-10-11T19:13:05.410Z,22.40
2017-10-11T19:15:35.110Z,22.50
2017-10-11T19:18:03.852Z,22.50
2017-10-11T19:20:32.699Z,22.50
2017-10-11T19:23:01.754Z,22.40
2017-10-11T19:25:30.551Z,22.40
2017-10-11T19:27:59.414Z,22.40
2017-10-11T19:30:37.247Z,22.40
2017-10-11T19:33:08.214Z,22.30
2017-10-11T19:35:46.116Z,22.30
2017-10-11T19:38:14.848Z,22.30
2017-10-11T19:40:43.657Z,22.30
2017-10-11T19:43:14.723Z,22.30
2017-10-11T19:45:43.468Z,22.30
2017-10-11T19:48:15.030Z,22.30
2017-10-11T19:50:45.156Z,22.30
2017-10-11T19:53:13.920Z,22.20
2017-10-11T19:55:42.972Z,22.20
2017-10-11T19:58:12.337Z,22.20
2017-10-11T20:00:55.829Z,22.20
2017-10-11T20:03:24.884Z,22.10
2017-10-11T20:05:53.556Z,22.20
2017-10-11T20:08:22.267Z,22.10
2017-10-11T20:10:51.920Z,22.10
2017-10-11T20:13:21.105Z,22.10
2017-10-11T20:15:49.795Z,22.10
2017-10-11T20:18:18.739Z,22.10
2017-10-11T20:20:48.072Z,22.20
2017-10-11T20:23:16.754Z,22.10
2017-10-11T20:25:45.571Z,22.10
2017-10-11T20:28:15.353Z,22.10
2017-10-11T20:30:45.234Z,22.10
2017-10-11T20:33:14.481Z,22.10
2017-10-11T20:35:43.539Z,22.10
2017-10-11T20:38:12.316Z,22.00
2017-10-11T20:40:41.557Z,22.00
2017-10-11T20:43:10.229Z,22.00
2017-10-11T20:45:38.901Z,22.00
2017-10-11T20:48:08.088Z,22.00
2017-10-11T20:50:36.914Z,21.90
2017-10-11T20:53:06.513Z,21.90
2017-10-11T20:55:35.244Z,21.90
2017-10-11T20:58:04.118Z,21.90
2017-10-11T21:00:32.816Z,21.90
2017-10-11T21:03:01.554Z,21.90
2017-10-11T21:05:30.228Z,21.90
2017-10-11T21:08:00.325Z,21.90
2017-10-11T21:10:29.331Z,21.90
2017-10-11T21:12:58.326Z,22.00
2017-10-11T21:15:27.066Z,22.20
2017-10-11T21:17:55.741Z,22.40
2017-10-11T21:20:24.432Z,22.40
2017-10-11T21:22:54.414Z,22.10
2017-10-11T21:25:23.100Z,22.10
2017-10-11T21:27:51.777Z,22.00
2017-10-11T21:30:20.512Z,21.90
2017-10-11T21:32:49.219Z,21.80
2017-10-11T21:35:18.246Z,21.80
2017-10-11T21:37:47.422Z,21.80
2017-10-11T21:40:18.469Z,21.80
2017-10-11T21:42:47.416Z,21.80
2017-10-11T21:45:16.850Z,21.80
2017-10-11T21:47:45.974Z,21.70
2017-10-11T21:50:15.584Z,21.70
2017-10-11T21:52:45.232Z,21.70
2017-10-11T21:55:16.035Z,21.60
2017-10-11T21:57:44.667Z,21.60
2017-10-11T22:00:14.426Z,21.70
2017-10-11T22:02:43.054Z,21.60
2017-10-11T22:05:11.783Z,21.70
2017-10-11T22:07:40.454Z,21.60
2017-10-11T22:10:09.138Z,21.50
2017-10-11T22:12:38.780Z,21.50
2017-10-11T22:15:07.477Z,21.60
2017-10-11T22:17:36.108Z,21.60
2017-10-11T22:20:04.963Z,21.60
2017-10-11T22:22:33.681Z,21.50
2017-10-11T22:25:02.318Z,21.60
2017-10-11T22:27:30.956Z,21.50
2017-10-11T22:29:59.798Z,21.50
2017-10-11T22:32:28.483Z,21.50
2017-10-11T22:34:57.049Z,21.50
2017-10-11T22:37:25.594Z,21.40
2017-10-11T22:39:54.158Z,21.40
2017-10-11T22:42:22.830Z,21.40
2017-10-11T22:44:52.309Z,21.40
2017-10-11T22:47:21.413Z,21.50
2017-10-11T22:49:50.155Z,21.40
2017-10-11T22:52:18.753Z,21.40
2017-10-11T22:54:48.116Z,21.40
2017-10-11T22:57:16.773Z,21.40
2017-10-11T22:59:45.556Z,21.40
2017-10-11T23:02:14.287Z,21.40
2017-10-11T23:04:42.997Z,21.40
2017-10-11T23:07:11.615Z,21.40
2017-10-11T23:09:40.663Z,21.40
2017-10-11T23:12:09.299Z,21.40
2017-10-11T23:14:37.959Z,21.40
2017-10-11T23:17:06.573Z,21.40
2017-10-11T23:19:36.005Z,21.40
2017-10-11T23:22:04.611Z,21.40
2017-10-11T23:24:34.366Z,21.40
2017-10-11T23:27:03.022Z,21.40
2017-10-11T23:29:32.923Z,21.40
2017-10-11T23:32:01.560Z,21.40
2017-10-11T23:34:31.717Z,21.30
2017-10-11T23:37:00.365Z,21.20
2017-10-11T23:39:29.987Z,21.30
2017-10-11T23:41:58.689Z,21.30
2017-10-11T23:44:27.311Z,21.30
2017-10-11T23:46:55.974Z,21.30
2017-10-11T23:49:24.723Z,21.30
2017-10-11T23:51:54.313Z,21.30
2017-10-11T23:54:23.237Z,21.30
2017-10-11T23:56:51.818Z,21.30
2017-10-11T23:59:20.902Z,21.30
